sensor_id;sensor_type;location;lat;lon;timestamp;pressure;altitude;pressure_sealevel;temperature;humidity
70302;BME280;57706;56.326;43.882;2023-12-20T00:01:49;98758.69;;;2.42;100.00
70302;BME280;57706;56.326;43.882;2023-12-20T00:04:15;98748.19;;;2.44;100.00
70302;BME280;57706;56.326;43.882;2023-12-20T00:06:41;98761.59;;;2.39;100.00
70302;BME280;57706;56.326;43.882;2023-12-20T00:09:07;98755.81;;;2.45;100.00
70302;BME280;57706;56.326;43.882;2023-12-20T00:11:32;98766.34;;;2.44;100.00
70302;BME280;57706;56.326;43.882;2023-12-20T00:13:58;98769.72;;;2.44;100.00
70302;BME280;57706;56.326;43.882;2023-12-20T00:16:24;98762.91;;;2.43;100.00
70302;BME280;57706;56.326;43.882;2023-12-20T00:18:50;98770.94;;;2.32;100.00
70302;BME280;57706;56.326;43.882;2023-12-20T00:21:16;98772.88;;;2.30;100.00
70302;BME280;57706;56.326;43.882;2023-12-20T00:23:42;98783.50;;;2.45;100.00
70302;BME280;57706;56.326;43.882;2023-12-20T00:26:08;98776.25;;;2.48;100.00
70302;BME280;57706;56.326;43.882;2023-12-20T00:28:33;98775.34;;;2.58;100.00
70302;BME280;57706;56.326;43.882;2023-12-20T00:30:59;98783.72;;;2.52;100.00
70302;BME280;57706;56.326;43.882;2023-12-20T00:33:25;98785.41;;;2.61;100.00
70302;BME280;57706;56.326;43.882;2023-12-20T00:35:51;98783.97;;;2.58;100.00
70302;BME280;57706;56.326;43.882;2023-12-20T00:38:17;98777.88;;;2.50;100.00
70302;BME280;57706;56.326;43.882;2023-12-20T00:40:42;98773.81;;;2.47;100.00
70302;BME280;57706;56.326;43.882;2023-12-20T00:43:08;98788.19;;;2.41;100.00
70302;BME280;57706;56.326;43.882;2023-12-20T00:45:34;98786.63;;;2.48;100.00
70302;BME280;57706;56.326;43.882;2023-12-20T00:48:00;98782.69;;;2.44;100.00
70302;BME280;57706;56.326;43.882;2023-12-20T00:50:26;98785.59;;;2.41;100.00
70302;BME280;57706;56.326;43.882;2023-12-20T00:52:52;98797.06;;;2.39;100.00
70302;BME280;57706;56.326;43.882;2023-12-20T00:55:18;98788.31;;;2.40;100.00
70302;BME280;57706;56.326;43.882;2023-12-20T00:57:44;98793.28;;;2.33;100.00
70302;BME280;57706;56.326;43.882;2023-12-20T01:00:10;98797.50;;;2.34;100.00
70302;BME280;57706;56.326;43.882;2023-12-20T01:02:36;98802.78;;;2.42;100.00
70302;BME280;57706;56.326;43.882;2023-12-20T01:05:02;98805.81;;;2.38;100.00
70302;BME280;57706;56.326;43.882;2023-12-20T01:07:30;98799.53;;;2.40;100.00
70302;BME280;57706;56.326;43.882;2023-12-20T01:09:56;98803.09;;;2.39;100.00
70302;BME280;57706;56.326;43.882;2023-12-20T01:12:22;98801.22;;;2.31;100.00
70302;BME280;57706;56.326;43.882;2023-12-20T01:14:47;98800.69;;;2.28;100.00
70302;BME280;57706;56.326;43.882;2023-12-20T01:17:13;98793.28;;;2.33;100.00
70302;BME280;57706;56.326;43.882;2023-12-20T01:19:39;98808.41;;;2.56;100.00
70302;BME280;57706;56.326;43.882;2023-12-20T01:22:05;98808.41;;;2.56;100.00
70302;BME280;57706;56.326;43.882;2023-12-20T01:24:31;98801.53;;;2.46;100.00
70302;BME280;57706;56.326;43.882;2023-12-20T01:26:57;98798.03;;;2.38;100.00
70302;BME280;57706;56.326;43.882;2023-12-20T01:29:23;98805.94;;;2.36;100.00
70302;BME280;57706;56.326;43.882;2023-12-20T01:31:49;98799.53;;;2.40;100.00
70302;BME280;57706;56.326;43.882;2023-12-20T01:34:14;98800.63;;;2.38;100.00
70302;BME280;57706;56.326;43.882;2023-12-20T01:36:40;98800.34;;;2.41;100.00
70302;BME280;57706;56.326;43.882;2023-12-20T01:39:06;98805.00;;;2.37;100.00
70302;BME280;57706;56.326;43.882;2023-12-20T01:41:32;98801.47;;;2.38;100.00
70302;BME280;57706;56.326;43.882;2023-12-20T01:43:58;98798.88;;;2.38;100.00
70302;BME280;57706;56.326;43.882;2023-12-20T01:46:24;98805.59;;;2.31;100.00
70302;BME280;57706;56.326;43.882;2023-12-20T01:48:50;98805.44;;;2.51;100.00
70302;BME280;57706;56.326;43.882;2023-12-20T01:51:16;98800.09;;;2.34;100.00
70302;BME280;57706;56.326;43.882;2023-12-20T01:53:43;98800.50;;;2.39;100.00
70302;BME280;57706;56.326;43.882;2023-12-20T01:56:09;98804.78;;;2.30;100.00
70302;BME280;57706;56.326;43.882;2023-12-20T01:58:43;98804.91;;;2.47;100.00
70302;BME280;57706;56.326;43.882;2023-12-20T02:01:10;98808.53;;;2.36;100.00
70302;BME280;57706;56.326;43.882;2023-12-20T02:03:36;98806.25;;;2.51;100.00
70302;BME280;57706;56.326;43.882;2023-12-20T02:06:03;98805.19;;;2.80;100.00
70302;BME280;57706;56.326;43.882;2023-12-20T02:08:29;98797.72;;;2.59;100.00
70302;BME280;57706;56.326;43.882;2023-12-20T02:10:56;98799.53;;;2.58;100.00
70302;BME280;57706;56.326;43.882;2023-12-20T02:13:21;98802.41;;;2.55;100.00
70302;BME280;57706;56.326;43.882;2023-12-20T02:15:47;98810.25;;;2.64;100.00
70302;BME280;57706;56.326;43.882;2023-12-20T02:18:13;98813.47;;;2.57;100.00
70302;BME280;57706;56.326;43.882;2023-12-20T02:20:42;98816.63;;;2.33;100.00
70302;BME280;57706;56.326;43.882;2023-12-20T02:23:08;98823.25;;;2.45;100.00
70302;BME280;57706;56.326;43.882;2023-12-20T02:25:34;98811.22;;;2.44;100.00
70302;BME280;57706;56.326;43.882;2023-12-20T02:28:01;98824.63;;;2.40;100.00
70302;BME280;57706;56.326;43.882;2023-12-20T02:30:27;98813.28;;;2.59;100.00
70302;BME280;57706;56.326;43.882;2023-12-20T02:32:53;98812.38;;;2.68;100.00
70302;BME280;57706;56.326;43.882;2023-12-20T02:35:19;98799.00;;;2.55;100.00
70302;BME280;57706;56.326;43.882;2023-12-20T02:37:45;98806.28;;;2.78;100.00
70302;BME280;57706;56.326;43.882;2023-12-20T02:40:11;98792.66;;;2.75;100.00
70302;BME280;57706;56.326;43.882;2023-12-20T02:42:37;98798.44;;;2.69;100.00
70302;BME280;57706;56.326;43.882;2023-12-20T02:45:03;98808.41;;;2.56;100.00
70302;BME280;57706;56.326;43.882;2023-12-20T02:47:31;98805.28;;;2.70;100.00
70302;BME280;57706;56.326;43.882;2023-12-20T02:49:57;98813.47;;;2.39;100.00
70302;BME280;57706;56.326;43.882;2023-12-20T02:52:24;98801.88;;;2.52;100.00
70302;BME280;57706;56.326;43.882;2023-12-20T02:54:50;98804.84;;;2.57;100.00
70302;BME280;57706;56.326;43.882;2023-12-20T02:57:16;98809.72;;;2.60;100.00
70302;BME280;57706;56.326;43.882;2023-12-20T02:59:42;98803.22;;;2.56;100.00
70302;BME280;57706;56.326;43.882;2023-12-20T03:02:08;98808.63;;;2.63;100.00
70302;BME280;57706;56.326;43.882;2023-12-20T03:04:34;98806.34;;;2.41;100.00
70302;BME280;57706;56.326;43.882;2023-12-20T03:07:00;98805.09;;;2.45;100.00
70302;BME280;57706;56.326;43.882;2023-12-20T03:09:26;98801.97;;;2.42;100.00
70302;BME280;57706;56.326;43.882;2023-12-20T03:11:52;98801.22;;;2.50;100.00
70302;BME280;57706;56.326;43.882;2023-12-20T03:14:17;98798.63;;;2.50;100.00
70302;BME280;57706;56.326;43.882;2023-12-20T03:16:49;98814.63;;;2.45;100.00
70302;BME280;57706;56.326;43.882;2023-12-20T03:19:16;98816.63;;;2.51;100.00
70302;BME280;57706;56.326;43.882;2023-12-20T03:21:42;98807.81;;;2.62;100.00
70302;BME280;57706;56.326;43.882;2023-12-20T03:24:08;98810.75;;;2.67;100.00
70302;BME280;57706;56.326;43.882;2023-12-20T03:26:34;98815.16;;;2.48;100.00
70302;BME280;57706;56.326;43.882;2023-12-20T03:29:00;98806.72;;;2.28;100.00
70302;BME280;57706;56.326;43.882;2023-12-20T03:31:26;98814.78;;;2.43;100.00
70302;BME280;57706;56.326;43.882;2023-12-20T03:33:52;98814.34;;;2.30;100.00
70302;BME280;57706;56.326;43.882;2023-12-20T03:36:20;98813.16;;;2.42;100.00
70302;BME280;57706;56.326;43.882;2023-12-20T03:38:46;98815.31;;;2.29;100.00
70302;BME280;57706;56.326;43.882;2023-12-20T03:41:12;98797.38;;;2.36;100.00
70302;BME280;57706;56.326;43.882;2023-12-20T03:43:38;98822.41;;;2.27;100.00
70302;BME280;57706;56.326;43.882;2023-12-20T03:46:04;98820.56;;;2.55;100.00
70302;BME280;57706;56.326;43.882;2023-12-20T03:48:31;98807.19;;;2.68;100.00
70302;BME280;57706;56.326;43.882;2023-12-20T03:50:57;98799.22;;;2.43;100.00
70302;BME280;57706;56.326;43.882;2023-12-20T03:53:23;98798.56;;;2.41;100.00
70302;BME280;57706;56.326;43.882;2023-12-20T03:55:49;98795.16;;;2.41;100.00
70302;BME280;57706;56.326;43.882;2023-12-20T03:58:14;98797.31;;;2.45;100.00
70302;BME280;57706;56.326;43.882;2023-12-20T04:00:40;98796.09;;;2.58;100.00
70302;BME280;57706;56.326;43.882;2023-12-20T04:03:07;98800.69;;;2.46;100.00
70302;BME280;57706;56.326;43.882;2023-12-20T04:05:33;98806.34;;;2.59;100.00
70302;BME280;57706;56.326;43.882;2023-12-20T04:08:01;98789.66;;;2.62;100.00
70302;BME280;57706;56.326;43.882;2023-12-20T04:10:27;98790.91;;;2.58;100.00
70302;BME280;57706;56.326;43.882;2023-12-20T04:12:53;98787.72;;;2.64;100.00
70302;BME280;57706;56.326;43.882;2023-12-20T04:15:21;98790.53;;;2.71;100.00
70302;BME280;57706;56.326;43.882;2023-12-20T04:17:47;98769.72;;;2.44;100.00
70302;BME280;57706;56.326;43.882;2023-12-20T04:20:13;98777.44;;;2.36;100.00
70302;BME280;57706;56.326;43.882;2023-12-20T04:22:39;98792.63;;;2.49;100.00
70302;BME280;57706;56.326;43.882;2023-12-20T04:25:05;98783.38;;;2.46;100.00
70302;BME280;57706;56.326;43.882;2023-12-20T04:27:31;98789.88;;;2.14;100.00
70302;BME280;57706;56.326;43.882;2023-12-20T04:29:57;98799.44;;;2.14;100.00
70302;BME280;57706;56.326;43.882;2023-12-20T04:32:23;98798.03;;;2.19;100.00
70302;BME280;57706;56.326;43.882;2023-12-20T04:34:49;98790.69;;;2.15;100.00
70302;BME280;57706;56.326;43.882;2023-12-20T04:37:15;98778.94;;;2.20;100.00
70302;BME280;57706;56.326;43.882;2023-12-20T04:39:41;98797.84;;;2.03;100.00
70302;BME280;57706;56.326;43.882;2023-12-20T04:42:07;98800.69;;;2.28;100.00
70302;BME280;57706;56.326;43.882;2023-12-20T04:44:33;98787.88;;;2.44;100.00
70302;BME280;57706;56.326;43.882;2023-12-20T04:46:59;98784.28;;;2.37;100.00
70302;BME280;57706;56.326;43.882;2023-12-20T04:49:25;98795.16;;;2.41;100.00
70302;BME280;57706;56.326;43.882;2023-12-20T04:51:51;98793.50;;;2.58;100.00
70302;BME280;57706;56.326;43.882;2023-12-20T04:54:17;98796.75;;;2.60;100.00
70302;BME280;57706;56.326;43.882;2023-12-20T04:56:43;98799.59;;;2.30;100.00
70302;BME280;57706;56.326;43.882;2023-12-20T04:59:09;98806.19;;;2.25;100.00
70302;BME280;57706;56.326;43.882;2023-12-20T05:01:35;98817.53;;;2.24;100.00
70302;BME280;57706;56.326;43.882;2023-12-20T05:04:00;98832.94;;;2.43;100.00
70302;BME280;57706;56.326;43.882;2023-12-20T05:06:26;98826.19;;;2.51;100.00
70302;BME280;57706;56.326;43.882;2023-12-20T05:08:52;98823.31;;;2.36;100.00
70302;BME280;57706;56.326;43.882;2023-12-20T05:11:18;98824.19;;;2.63;100.00
70302;BME280;57706;56.326;43.882;2023-12-20T05:13:44;98825.66;;;2.65;100.00
70302;BME280;57706;56.326;43.882;2023-12-20T05:16:10;98819.13;;;2.79;100.00
70302;BME280;57706;56.326;43.882;2023-12-20T05:18:36;98823.66;;;2.59;100.00
70302;BME280;57706;56.326;43.882;2023-12-20T05:21:02;98823.72;;;2.67;100.00
70302;BME280;57706;56.326;43.882;2023-12-20T05:23:28;98818.31;;;2.79;100.00
70302;BME280;57706;56.326;43.882;2023-12-20T05:25:54;98826.91;;;2.61;100.00
70302;BME280;57706;56.326;43.882;2023-12-20T05:28:21;98829.00;;;2.75;100.00
70302;BME280;57706;56.326;43.882;2023-12-20T05:30:46;98817.63;;;2.95;100.00
70302;BME280;57706;56.326;43.882;2023-12-20T05:33:12;98818.66;;;2.84;100.00
70302;BME280;57706;56.326;43.882;2023-12-20T05:35:38;98821.44;;;2.64;100.00
70302;BME280;57706;56.326;43.882;2023-12-20T05:38:04;98823.66;;;2.59;100.00
70302;BME280;57706;56.326;43.882;2023-12-20T05:40:30;98835.06;;;2.66;100.00
70302;BME280;57706;56.326;43.882;2023-12-20T05:42:55;98836.25;;;2.72;100.00
70302;BME280;57706;56.326;43.882;2023-12-20T05:45:21;98837.00;;;2.64;100.00
70302;BME280;57706;56.326;43.882;2023-12-20T05:47:47;98831.75;;;2.74;100.00
70302;BME280;57706;56.326;43.882;2023-12-20T05:50:13;98836.31;;;2.80;100.00
70302;BME280;57706;56.326;43.882;2023-12-20T05:52:39;98832.03;;;2.71;100.00
70302;BME280;57706;56.326;43.882;2023-12-20T05:55:05;98832.28;;;3.04;100.00
70302;BME280;57706;56.326;43.882;2023-12-20T05:57:33;98820.53;;;2.73;100.00
70302;BME280;57706;56.326;43.882;2023-12-20T05:59:59;98823.31;;;2.98;100.00
70302;BME280;57706;56.326;43.882;2023-12-20T06:02:25;98824.84;;;2.83;100.00
70302;BME280;57706;56.326;43.882;2023-12-20T06:04:51;98828.19;;;3.01;100.00
70302;BME280;57706;56.326;43.882;2023-12-20T06:07:17;98822.41;;;3.08;100.00
70302;BME280;57706;56.326;43.882;2023-12-20T06:09:43;98831.75;;;3.00;100.00
70302;BME280;57706;56.326;43.882;2023-12-20T06:12:09;98825.44;;;2.77;100.00
70302;BME280;57706;56.326;43.882;2023-12-20T06:14:36;98832.38;;;2.94;100.00
70302;BME280;57706;56.326;43.882;2023-12-20T06:17:02;98838.59;;;3.01;100.00
70302;BME280;57706;56.326;43.882;2023-12-20T06:19:28;98836.97;;;3.00;100.00
70302;BME280;57706;56.326;43.882;2023-12-20T06:21:54;98835.38;;;3.08;100.00
70302;BME280;57706;56.326;43.882;2023-12-20T06:24:20;98842.16;;;3.00;100.00
70302;BME280;57706;56.326;43.882;2023-12-20T06:26:47;98844.41;;;2.95;100.00
70302;BME280;57706;56.326;43.882;2023-12-20T06:29:13;98841.31;;;2.73;100.00
70302;BME280;57706;56.326;43.882;2023-12-20T06:31:39;98846.94;;;3.13;100.00
70302;BME280;57706;56.326;43.882;2023-12-20T06:34:05;98834.13;;;3.12;100.00
70302;BME280;57706;56.326;43.882;2023-12-20T06:36:31;98833.22;;;3.21;100.00
70302;BME280;57706;56.326;43.882;2023-12-20T06:38:57;98833.91;;;3.05;100.00
70302;BME280;57706;56.326;43.882;2023-12-20T06:41:24;98835.00;;;3.02;100.00
70302;BME280;57706;56.326;43.882;2023-12-20T06:43:50;98838.03;;;3.16;100.00
70302;BME280;57706;56.326;43.882;2023-12-20T06:46:19;98845.50;;;3.19;100.00
70302;BME280;57706;56.326;43.882;2023-12-20T06:48:45;98832.56;;;3.27;100.00
70302;BME280;57706;56.326;43.882;2023-12-20T06:51:15;98847.66;;;2.97;100.00
70302;BME280;57706;56.326;43.882;2023-12-20T06:53:41;98846.94;;;3.13;100.00
70302;BME280;57706;56.326;43.882;2023-12-20T06:56:09;98852.00;;;3.15;100.00
70302;BME280;57706;56.326;43.882;2023-12-20T06:58:36;98847.16;;;3.20;100.00
70302;BME280;57706;56.326;43.882;2023-12-20T07:01:03;98837.28;;;3.24;100.00
70302;BME280;57706;56.326;43.882;2023-12-20T07:03:30;98836.03;;;3.10;100.00
70302;BME280;57706;56.326;43.882;2023-12-20T07:05:56;98848.28;;;3.17;100.00
70302;BME280;57706;56.326;43.882;2023-12-20T07:08:22;98843.50;;;3.05;100.00
70302;BME280;57706;56.326;43.882;2023-12-20T07:10:48;98855.38;;;2.89;100.00
70302;BME280;57706;56.326;43.882;2023-12-20T07:13:14;98853.44;;;2.91;100.00
70302;BME280;57706;56.326;43.882;2023-12-20T07:15:39;98848.97;;;3.01;100.00
70302;BME280;57706;56.326;43.882;2023-12-20T07:18:05;98852.09;;;3.32;100.00
70302;BME280;57706;56.326;43.882;2023-12-20T07:20:32;98833.09;;;3.31;100.00
70302;BME280;57706;56.326;43.882;2023-12-20T07:22:58;98839.53;;;3.45;100.00
70302;BME280;57706;56.326;43.882;2023-12-20T07:25:24;98839.53;;;3.19;100.00
70302;BME280;57706;56.326;43.882;2023-12-20T07:27:50;98842.38;;;3.34;100.00
70302;BME280;57706;56.326;43.882;2023-12-20T07:30:16;98855.09;;;3.19;100.00
70302;BME280;57706;56.326;43.882;2023-12-20T07:32:41;98850.81;;;3.36;100.00
70302;BME280;57706;56.326;43.882;2023-12-20T07:35:08;98843.78;;;3.28;100.00
70302;BME280;57706;56.326;43.882;2023-12-20T07:37:33;98839.91;;;3.58;100.00
70302;BME280;57706;56.326;43.882;2023-12-20T07:39:59;98840.16;;;3.47;100.00
70302;BME280;57706;56.326;43.882;2023-12-20T07:42:25;98844.00;;;3.35;100.00
70302;BME280;57706;56.326;43.882;2023-12-20T07:44:51;98856.78;;;3.28;100.00
70302;BME280;57706;56.326;43.882;2023-12-20T07:47:17;98842.25;;;3.43;100.00
70302;BME280;57706;56.326;43.882;2023-12-20T07:49:50;98836.13;;;3.53;100.00
70302;BME280;57706;56.326;43.882;2023-12-20T07:52:18;98851.34;;;3.13;100.00
70302;BME280;57706;56.326;43.882;2023-12-20T07:54:45;98852.03;;;3.23;100.00
70302;BME280;57706;56.326;43.882;2023-12-20T07:57:11;98849.53;;;3.40;100.00
70302;BME280;57706;56.326;43.882;2023-12-20T07:59:38;98858.34;;;3.47;100.00
70302;BME280;57706;56.326;43.882;2023-12-20T08:02:03;98851.22;;;3.49;100.00
70302;BME280;57706;56.326;43.882;2023-12-20T08:04:29;98866.06;;;3.30;100.00
70302;BME280;57706;56.326;43.882;2023-12-20T08:06:55;98859.47;;;3.44;100.00
70302;BME280;57706;56.326;43.882;2023-12-20T08:09:21;98860.59;;;3.42;100.00
70302;BME280;57706;56.326;43.882;2023-12-20T08:11:47;98869.16;;;3.34;100.00
70302;BME280;57706;56.326;43.882;2023-12-20T08:14:14;98859.66;;;3.51;100.00
70302;BME280;57706;56.326;43.882;2023-12-20T08:16:40;98856.72;;;3.46;100.00
70302;BME280;57706;56.326;43.882;2023-12-20T08:19:06;98875.09;;;3.26;100.00
70302;BME280;57706;56.326;43.882;2023-12-20T08:21:32;98876.34;;;3.40;100.00
70302;BME280;57706;56.326;43.882;2023-12-20T08:23:57;98863.66;;;3.37;100.00
70302;BME280;57706;56.326;43.882;2023-12-20T08:26:23;98877.88;;;3.60;100.00
70302;BME280;57706;56.326;43.882;2023-12-20T08:28:50;98861.19;;;3.36;100.00
70302;BME280;57706;56.326;43.882;2023-12-20T08:31:17;98871.28;;;3.39;100.00
70302;BME280;57706;56.326;43.882;2023-12-20T08:33:47;98861.50;;;3.59;100.00
70302;BME280;57706;56.326;43.882;2023-12-20T08:36:13;98864.63;;;3.63;100.00
70302;BME280;57706;56.326;43.882;2023-12-20T08:38:39;98863.66;;;3.37;100.00
70302;BME280;57706;56.326;43.882;2023-12-20T08:41:06;98868.66;;;3.30;100.00
70302;BME280;57706;56.326;43.882;2023-12-20T08:43:34;98863.47;;;3.30;100.00
70302;BME280;57706;56.326;43.882;2023-12-20T08:46:00;98861.25;;;3.44;100.00
70302;BME280;57706;56.326;43.882;2023-12-20T08:48:26;98865.38;;;3.55;100.00
70302;BME280;57706;56.326;43.882;2023-12-20T08:50:52;98859.66;;;3.51;100.00
70302;BME280;57706;56.326;43.882;2023-12-20T08:53:18;98860.16;;;3.55;100.00
70302;BME280;57706;56.326;43.882;2023-12-20T08:55:45;98870.78;;;3.62;100.00
70302;BME280;57706;56.326;43.882;2023-12-20T08:58:11;98865.06;;;3.58;100.00
70302;BME280;57706;56.326;43.882;2023-12-20T09:00:37;98855.81;;;3.55;100.00
70302;BME280;57706;56.326;43.882;2023-12-20T09:03:04;98860.69;;;3.58;100.00
70302;BME280;57706;56.326;43.882;2023-12-20T09:05:31;98870.78;;;3.62;100.00
70302;BME280;57706;56.326;43.882;2023-12-20T09:07:57;98865.59;;;3.62;100.00
70302;BME280;57706;56.326;43.882;2023-12-20T09:10:23;98869.63;;;3.64;100.00
70302;BME280;57706;56.326;43.882;2023-12-20T09:12:52;98865.41;;;3.63;100.00
70302;BME280;57706;56.326;43.882;2023-12-20T09:15:23;98876.88;;;3.52;100.00
70302;BME280;57706;56.326;43.882;2023-12-20T09:17:49;98869.34;;;3.67;100.00
70302;BME280;57706;56.326;43.882;2023-12-20T09:20:15;98861.06;;;3.72;100.00
70302;BME280;57706;56.326;43.882;2023-12-20T09:22:41;98854.91;;;3.73;100.00
70302;BME280;57706;56.326;43.882;2023-12-20T09:25:09;98852.75;;;4.03;100.00
70302;BME280;57706;56.326;43.882;2023-12-20T09:27:35;98860.75;;;3.75;100.00
70302;BME280;57706;56.326;43.882;2023-12-20T09:30:02;98866.97;;;3.82;100.00
70302;BME280;57706;56.326;43.882;2023-12-20T09:32:31;98861.00;;;3.55;100.00
70302;BME280;57706;56.326;43.882;2023-12-20T09:34:57;98867.06;;;3.72;100.00
70302;BME280;57706;56.326;43.882;2023-12-20T09:37:26;98875.88;;;3.80;100.00
70302;BME280;57706;56.326;43.882;2023-12-20T09:39:52;98866.03;;;3.92;100.00
70302;BME280;57706;56.326;43.882;2023-12-20T09:42:24;98876.97;;;3.69;100.00
70302;BME280;57706;56.326;43.882;2023-12-20T09:44:54;98888.28;;;3.60;100.00
70302;BME280;57706;56.326;43.882;2023-12-20T09:47:23;98880.66;;;3.58;100.00
70302;BME280;57706;56.326;43.882;2023-12-20T09:49:50;98889.34;;;3.40;100.00
70302;BME280;57706;56.326;43.882;2023-12-20T09:52:18;98897.97;;;3.49;100.00
70302;BME280;57706;56.326;43.882;2023-12-20T09:54:45;98890.44;;;3.38;100.00
70302;BME280;57706;56.326;43.882;2023-12-20T09:57:13;98899.03;;;3.65;100.00
70302;BME280;57706;56.326;43.882;2023-12-20T09:59:40;98895.31;;;3.67;100.00
70302;BME280;57706;56.326;43.882;2023-12-20T10:02:10;98897.75;;;3.69;100.00
70302;BME280;57706;56.326;43.882;2023-12-20T10:04:41;98907.75;;;3.55;100.00
70302;BME280;57706;56.326;43.882;2023-12-20T10:07:10;98906.69;;;3.40;100.00
70302;BME280;57706;56.326;43.882;2023-12-20T10:09:37;98896.66;;;3.45;100.00
70302;BME280;57706;56.326;43.882;2023-12-20T10:12:04;98896.44;;;3.65;100.00
70302;BME280;57706;56.326;43.882;2023-12-20T10:14:32;98889.22;;;3.50;100.00
70302;BME280;57706;56.326;43.882;2023-12-20T10:17:05;98906.03;;;3.38;100.00
70302;BME280;57706;56.326;43.882;2023-12-20T10:19:32;98909.47;;;3.47;100.00
70302;BME280;57706;56.326;43.882;2023-12-20T10:22:01;98901.53;;;3.48;100.00
70302;BME280;57706;56.326;43.882;2023-12-20T10:24:30;98904.69;;;3.60;100.00
70302;BME280;57706;56.326;43.882;2023-12-20T10:27:03;98891.09;;;3.66;100.00
70302;BME280;57706;56.326;43.882;2023-12-20T10:29:36;98884.47;;;3.46;100.00
70302;BME280;57706;56.326;43.882;2023-12-20T10:32:25;98889.91;;;3.61;100.00
70302;BME280;57706;56.326;43.882;2023-12-20T10:34:52;98880.25;;;3.71;100.00
70302;BME280;57706;56.326;43.882;2023-12-20T10:37:18;98890.00;;;3.77;100.00
70302;BME280;57706;56.326;43.882;2023-12-20T10:39:49;98890.94;;;3.68;100.00
70302;BME280;57706;56.326;43.882;2023-12-20T10:42:16;98886.88;;;3.65;100.00
70302;BME280;57706;56.326;43.882;2023-12-20T10:44:42;98894.22;;;3.70;100.00
70302;BME280;57706;56.326;43.882;2023-12-20T10:47:09;98878.94;;;4.10;100.00
70302;BME280;57706;56.326;43.882;2023-12-20T10:49:37;98866.16;;;5.33;100.00
70302;BME280;57706;56.326;43.882;2023-12-20T10:52:05;98851.50;;;5.88;100.00
70302;BME280;57706;56.326;43.882;2023-12-20T10:54:33;98868.63;;;4.60;100.00
70302;BME280;57706;56.326;43.882;2023-12-20T10:56:59;98887.44;;;3.85;100.00
70302;BME280;57706;56.326;43.882;2023-12-20T10:59:27;98874.72;;;3.74;100.00
70302;BME280;57706;56.326;43.882;2023-12-20T11:01:55;98881.81;;;4.75;100.00
70302;BME280;57706;56.326;43.882;2023-12-20T11:04:28;98870.25;;;7.17;100.00
70302;BME280;57706;56.326;43.882;2023-12-20T11:07:13;98864.88;;;8.31;100.00
70302;BME280;57706;56.326;43.882;2023-12-20T11:09:47;98871.44;;;7.14;100.00
70302;BME280;57706;56.326;43.882;2023-12-20T11:12:20;98873.97;;;5.33;100.00
70302;BME280;57706;56.326;43.882;2023-12-20T11:14:52;98871.41;;;4.66;100.00
70302;BME280;57706;56.326;43.882;2023-12-20T11:17:20;98885.94;;;4.18;100.00
70302;BME280;57706;56.326;43.882;2023-12-20T11:22:20;98888.03;;;3.71;100.00
70302;BME280;57706;56.326;43.882;2023-12-20T11:24:47;98905.91;;;3.74;100.00
70302;BME280;57706;56.326;43.882;2023-12-20T11:27:14;98900.16;;;3.36;100.00
70302;BME280;57706;56.326;43.882;2023-12-20T11:29:40;98925.66;;;3.14;100.00
70302;BME280;57706;56.326;43.882;2023-12-20T11:34:51;98910.97;;;3.05;100.00
70302;BME280;57706;56.326;43.882;2023-12-20T11:37:19;98918.00;;;3.30;100.00
70302;BME280;57706;56.326;43.882;2023-12-20T11:39:56;98904.91;;;3.40;100.00
70302;BME280;57706;56.326;43.882;2023-12-20T11:42:25;98916.31;;;3.21;100.00
70302;BME280;57706;56.326;43.882;2023-12-20T11:44:52;98922.41;;;3.38;100.00
70302;BME280;57706;56.326;43.882;2023-12-20T11:47:19;98921.63;;;3.38;100.00
70302;BME280;57706;56.326;43.882;2023-12-20T11:49:48;98916.00;;;3.24;100.00
70302;BME280;57706;56.326;43.882;2023-12-20T11:52:14;98919.09;;;3.28;100.00
70302;BME280;57706;56.326;43.882;2023-12-20T11:54:40;98909.09;;;3.33;100.00
70302;BME280;57706;56.326;43.882;2023-12-20T11:57:06;98921.72;;;3.54;100.00
70302;BME280;57706;56.326;43.882;2023-12-20T11:59:32;98921.72;;;3.54;100.00
70302;BME280;57706;56.326;43.882;2023-12-20T12:01:59;98908.47;;;3.66;100.00
70302;BME280;57706;56.326;43.882;2023-12-20T12:04:27;98921.63;;;3.38;100.00
70302;BME280;57706;56.326;43.882;2023-12-20T12:06:53;98933.97;;;3.44;100.00
70302;BME280;57706;56.326;43.882;2023-12-20T12:09:19;98937.66;;;3.15;100.00
70302;BME280;57706;56.326;43.882;2023-12-20T12:11:45;98933.50;;;3.22;100.00
70302;BME280;57706;56.326;43.882;2023-12-20T12:14:11;98939.28;;;3.16;100.00
70302;BME280;57706;56.326;43.882;2023-12-20T12:16:37;98947.22;;;3.33;100.00
70302;BME280;57706;56.326;43.882;2023-12-20T12:19:03;98942.34;;;3.29;100.00
70302;BME280;57706;56.326;43.882;2023-12-20T12:21:30;98951.97;;;3.19;100.00
70302;BME280;57706;56.326;43.882;2023-12-20T12:24:09;98961.72;;;2.99;100.00
70302;BME280;57706;56.326;43.882;2023-12-20T12:26:35;98945.59;;;2.77;100.00
70302;BME280;57706;56.326;43.882;2023-12-20T12:29:01;98950.88;;;3.03;100.00
70302;BME280;57706;56.326;43.882;2023-12-20T12:31:27;98950.34;;;2.82;100.00
70302;BME280;57706;56.326;43.882;2023-12-20T12:33:53;98946.41;;;2.78;100.00
70302;BME280;57706;56.326;43.882;2023-12-20T12:36:19;98946.56;;;2.58;100.00
70302;BME280;57706;56.326;43.882;2023-12-20T12:38:45;98952.03;;;2.55;100.00
70302;BME280;57706;56.326;43.882;2023-12-20T12:41:13;98953.38;;;2.59;100.00
70302;BME280;57706;56.326;43.882;2023-12-20T12:43:39;98954.72;;;2.63;100.00
70302;BME280;57706;56.326;43.882;2023-12-20T12:46:05;98958.56;;;2.59;100.00
70302;BME280;57706;56.326;43.882;2023-12-20T12:48:31;98966.63;;;2.56;100.00
70302;BME280;57706;56.326;43.882;2023-12-20T12:50:56;98965.88;;;2.45;100.00
70302;BME280;57706;56.326;43.882;2023-12-20T12:53:27;98968.09;;;2.40;100.00